Zanesville Municipal Airport Zanesville US
ICAO: KZZV
IATA: ZZV
Category: Medium
Scheduled Services: No

Elevation: 900 ft
TransAlt. 18000 ft.

Airport Communications:
ASOS:111.4
INDIANAPOLIS CNTR:124.45
CLEVELAND RDO:122.2
CTAF/UNICOM:123

KZZV Zoom In..

Runways:

(A) RW 04 length 5000 ft width 150 ft
---- / hdg 40

(B) RW 16 length 4999 ft width 150 ft
---- / hdg 158

(C) RW 22 length 5000 ft width 150 ft
ILS 109.95 / hdg 220

(D) RW 34 length 4999 ft width 150 ft
---- / hdg 338

Location; KZZV
Day. 06 / Time. 05.53 Zulu
* Altimeter: 30.11
* Temperature: 16° c. 60.8°f.
* Wind from: 000° Speed 00 kn.
Dewpoint: 14° c.
Visibility: 10 Statute Miles.
Clouds: Clear (automated report).

KZZV 060553Z AUTO 00000KT 10SM CLR 16/14 A3011 RMK AO2 SLP192 T01560144 10228 20150 53002

Going to: --> -->


Wind - Calm.

 
 
jpsmedia worldairports.se 2020   terms of use